createdAt,value
2019-06-10T00:00:34.978Z,6.17
2019-06-10T00:03:06.024Z,7.47
2019-06-10T00:05:37.796Z,7.97
2019-06-10T00:08:11.425Z,6.20
2019-06-10T00:10:42.146Z,4.77
2019-06-10T00:13:34.329Z,5.37
2019-06-10T00:16:08.043Z,7.53
2019-06-10T00:18:42.965Z,5.77
2019-06-10T00:21:11.976Z,5.30
2019-06-10T00:23:44.268Z,7.90
2019-06-10T00:26:14.115Z,6.80
2019-06-10T00:28:45.315Z,7.47
2019-06-10T00:31:15.955Z,9.33
2019-06-10T00:33:45.914Z,10.87
2019-06-10T00:36:17.395Z,11.20
2019-06-10T00:38:48.707Z,12.57
2019-06-10T00:41:21.953Z,11.50
2019-06-10T00:43:52.879Z,13.17
2019-06-10T00:46:24.392Z,14.23
2019-06-10T00:48:57.858Z,14.10
2019-06-10T00:51:31.412Z,9.70
2019-06-10T00:54:05.336Z,6.43
2019-06-10T00:56:36.922Z,7.27
2019-06-10T00:59:07.884Z,9.27
2019-06-10T01:01:38.106Z,6.70
2019-06-10T01:04:14.434Z,8.43
2019-06-10T01:06:42.478Z,7.90
2019-06-10T01:09:32.866Z,7.50
2019-06-10T01:12:04.835Z,8.13
2019-06-10T01:14:36.043Z,7.93
2019-06-10T01:17:10.935Z,7.30
2019-06-10T01:19:43.296Z,8.23
2019-06-10T01:22:14.204Z,8.20
2019-06-10T01:24:47.286Z,8.47
2019-06-10T01:27:18.395Z,8.60
2019-06-10T01:29:50.935Z,9.20
2019-06-10T01:32:21.794Z,9.17
2019-06-10T01:34:54.371Z,9.43
2019-06-10T01:37:26.769Z,9.73
2019-06-10T01:40:00.645Z,11.17
2019-06-10T01:42:31.445Z,13.83
2019-06-10T01:45:02.928Z,10.63
2019-06-10T01:47:37.694Z,12.97
2019-06-10T01:50:11.895Z,11.30
2019-06-10T01:52:41.342Z,12.20
2019-06-10T01:55:14.943Z,13.22
2019-06-10T01:57:46.943Z,11.83
2019-06-10T02:00:22.726Z,10.53
2019-06-10T02:02:52.403Z,14.13
2019-06-10T02:05:23.708Z,12.80
2019-06-10T02:07:55.153Z,13.60
2019-06-10T02:10:30.965Z,12.50
2019-06-10T02:13:03.388Z,12.57
2019-06-10T02:15:37.348Z,13.13
2019-06-10T02:18:11.677Z,12.77
2019-06-10T02:20:44.957Z,15.97
2019-06-10T02:23:17.059Z,12.57
2019-06-10T02:25:47.007Z,14.73
2019-06-10T02:28:23.186Z,13.68
2019-06-10T02:30:56.439Z,14.23
2019-06-10T02:33:32.344Z,16.10
2019-06-10T02:36:04.694Z,14.90
2019-06-10T02:38:39.365Z,15.50
2019-06-10T02:41:08.648Z,16.10
2019-06-10T02:43:43.823Z,17.50
2019-06-10T02:46:17.928Z,16.23
2019-06-10T02:48:49.835Z,20.00
2019-06-10T02:51:24.750Z,20.13
2019-06-10T02:53:53.994Z,20.33
2019-06-10T02:56:31.351Z,18.27
2019-06-10T02:59:03.372Z,18.70
2019-06-10T03:01:37.997Z,20.73
2019-06-10T03:04:08.337Z,18.43
2019-06-10T03:06:40.393Z,18.27
2019-06-10T03:09:14.044Z,19.10
2019-06-10T03:11:46.095Z,18.63
2019-06-10T03:14:15.816Z,19.13
2019-06-10T03:16:56.714Z,19.23
2019-06-10T03:19:41.947Z,21.33
2019-06-10T03:22:05.213Z,18.87
2019-06-10T03:24:37.923Z,18.03
2019-06-10T03:27:09.817Z,19.27
2019-06-10T03:29:42.621Z,17.27
2019-06-10T03:32:16.619Z,20.60
2019-06-10T03:34:49.177Z,19.30
2019-06-10T03:37:26.004Z,19.40
2019-06-10T03:39:57.404Z,21.17
2019-06-10T03:42:32.371Z,20.63
2019-06-10T03:45:03.317Z,19.57
2019-06-10T03:47:36.208Z,19.70
2019-06-10T03:50:09.270Z,19.17
2019-06-10T03:52:43.165Z,21.20
2019-06-10T03:55:14.560Z,19.60
2019-06-10T03:57:49.454Z,21.23
2019-06-10T04:00:19.860Z,19.10
2019-06-10T04:02:53.199Z,22.73
2019-06-10T04:05:25.762Z,20.02
2019-06-10T04:07:57.355Z,20.62
2019-06-10T04:10:28.175Z,20.20
2019-06-10T04:12:59.546Z,21.70
2019-06-10T04:15:32.562Z,18.73
2019-06-10T04:18:03.899Z,24.37
2019-06-10T04:20:33.488Z,19.70
2019-06-10T04:23:04.906Z,18.13
2019-06-10T04:25:39.847Z,18.73
2019-06-10T04:28:12.517Z,18.13
2019-06-10T04:30:43.255Z,19.50
2019-06-10T04:33:14.696Z,18.07
2019-06-10T04:35:48.321Z,18.20
2019-06-10T04:38:23.345Z,18.85
2019-06-10T04:40:55.948Z,21.60
2019-06-10T04:43:28.862Z,20.17
2019-06-10T04:45:59.125Z,39.50
2019-06-10T04:48:32.369Z,18.00
2019-06-10T04:51:05.938Z,21.30
2019-06-10T04:53:40.226Z,18.57
2019-06-10T04:56:12.106Z,18.77
2019-06-10T04:58:47.084Z,19.00
2019-06-10T05:01:19.375Z,17.13
2019-06-10T05:03:52.678Z,19.23
2019-06-10T05:09:00.932Z,18.67
2019-06-10T05:11:33.151Z,16.83
2019-06-10T05:14:05.973Z,18.73
2019-06-10T05:16:39.349Z,21.67
2019-06-10T05:19:12.826Z,20.37
2019-06-10T05:21:44.281Z,17.20
2019-06-10T05:24:14.163Z,17.97
2019-06-10T05:26:46.903Z,16.40
2019-06-10T05:29:20.739Z,18.50
2019-06-10T05:31:52.300Z,18.50
2019-06-10T05:34:27.155Z,17.47
2019-06-10T05:37:02.716Z,18.53
2019-06-10T05:39:35.048Z,27.03
2019-06-10T05:42:05.445Z,18.77
2019-06-10T05:44:38.295Z,21.33
2019-06-10T05:47:12.527Z,18.73
2019-06-10T05:49:43.610Z,23.07
2019-06-10T05:52:17.165Z,24.47
2019-06-10T05:54:48.795Z,22.13
2019-06-10T05:57:20.037Z,18.17
2019-06-10T05:59:53.930Z,17.97
2019-06-10T06:02:27.760Z,19.92
2019-06-10T06:05:02.623Z,20.40
2019-06-10T06:07:35.543Z,16.87
2019-06-10T06:10:09.733Z,18.13
2019-06-10T06:12:42.508Z,20.43
2019-06-10T06:15:15.985Z,22.37
2019-06-10T06:18:04.014Z,14.37
2019-06-10T06:20:23.485Z,17.10
2019-06-10T06:22:56.241Z,21.50
2019-06-10T06:25:30.502Z,16.43
2019-06-10T06:28:00.085Z,14.90
2019-06-10T06:30:34.272Z,16.83
2019-06-10T06:33:05.460Z,18.40
2019-06-10T06:35:42.879Z,20.90
2019-06-10T06:38:14.669Z,17.13
2019-06-10T06:40:48.686Z,18.50
2019-06-10T06:43:22.193Z,20.43
2019-06-10T06:45:53.819Z,20.97
2019-06-10T06:48:27.828Z,17.00
2019-06-10T06:51:04.369Z,15.83
2019-06-10T06:53:39.560Z,16.47
2019-06-10T06:56:06.513Z,12.97
2019-06-10T06:58:43.220Z,16.43
2019-06-10T07:01:14.947Z,13.90
2019-06-10T07:03:47.996Z,20.27
2019-06-10T07:06:22.953Z,18.62
2019-06-10T07:09:04.243Z,14.53
2019-06-10T07:11:30.578Z,16.37
2019-06-10T07:14:05.737Z,18.40
2019-06-10T07:16:37.671Z,15.50
2019-06-10T07:19:09.382Z,14.70
2019-06-10T07:22:02.361Z,17.97
2019-06-10T07:24:18.056Z,13.20
2019-06-10T07:26:54.566Z,11.67
2019-06-10T07:29:25.075Z,14.20
2019-06-10T07:31:58.223Z,14.17
2019-06-10T07:34:40.483Z,11.23
2019-06-10T07:37:17.549Z,14.20
2019-06-10T07:39:52.175Z,12.47
2019-06-10T07:42:28.676Z,14.07
2019-06-10T07:47:41.742Z,11.07
2019-06-10T07:50:18.169Z,11.73
2019-06-10T07:55:46.637Z,12.97
2019-06-10T07:58:22.524Z,11.03
2019-06-10T08:00:55.159Z,14.20
2019-06-10T08:03:28.117Z,12.40
2019-06-10T08:05:59.313Z,10.93
2019-06-10T08:08:32.848Z,9.87
2019-06-10T08:13:35.211Z,8.85
2019-06-10T08:16:08.124Z,12.85
2019-06-10T08:19:07.054Z,14.87
2019-06-10T08:21:12.202Z,9.76
2019-06-10T08:23:46.547Z,9.80
2019-06-10T08:26:16.616Z,9.85
2019-06-10T08:28:52.823Z,10.60
2019-06-10T08:31:24.547Z,9.40
2019-06-10T08:33:59.591Z,12.80
2019-06-10T08:36:33.119Z,12.00
2019-06-10T08:39:03.755Z,9.90
2019-06-10T08:41:38.354Z,13.07
2019-06-10T08:44:12.323Z,12.45
2019-06-10T08:46:46.511Z,12.73
2019-06-10T08:49:35.332Z,10.30
2019-06-10T08:52:12.856Z,10.63
2019-06-10T08:54:47.948Z,14.30
2019-06-10T08:57:19.534Z,9.88
2019-06-10T08:59:53.154Z,12.93
2019-06-10T09:02:23.284Z,9.63
2019-06-10T09:04:58.439Z,9.65
2019-06-10T09:07:28.808Z,18.07
2019-06-10T09:10:02.948Z,11.97
2019-06-10T09:12:36.745Z,11.45
2019-06-10T09:15:13.047Z,11.18
2019-06-10T09:17:48.341Z,11.53
2019-06-10T09:20:22.993Z,10.17
2019-06-10T09:25:28.491Z,8.78
2019-06-10T09:28:03.571Z,12.58
2019-06-10T09:30:35.212Z,13.55
2019-06-10T09:33:13.435Z,10.32
2019-06-10T09:35:46.157Z,10.98
2019-06-10T09:38:38.195Z,14.57
2019-06-10T09:41:14.121Z,9.18
2019-06-10T09:43:50.316Z,9.68
2019-06-10T09:46:23.305Z,9.40
2019-06-10T09:49:02.109Z,11.80
2019-06-10T09:54:08.829Z,11.75
2019-06-10T09:56:46.894Z,12.13
2019-06-10T09:59:17.971Z,10.10
2019-06-10T10:01:52.203Z,8.88
2019-06-10T10:04:23.537Z,12.17
2019-06-10T10:06:57.318Z,10.93
2019-06-10T10:09:27.717Z,17.02
2019-06-10T10:11:57.449Z,12.45
2019-06-10T10:17:04.684Z,15.25
2019-06-10T10:19:34.412Z,11.25
2019-06-10T10:22:05.923Z,8.35
2019-06-10T10:24:42.955Z,10.03
2019-06-10T10:27:14.626Z,10.30
2019-06-10T10:29:50.024Z,10.28
2019-06-10T10:32:23.170Z,7.83
2019-06-10T10:34:56.357Z,9.15
2019-06-10T10:40:03.265Z,9.15
2019-06-10T10:42:45.514Z,8.18
2019-06-10T10:45:13.317Z,10.35
2019-06-10T10:47:46.953Z,8.05
2019-06-10T10:50:19.104Z,10.80
2019-06-10T10:52:52.285Z,9.00
2019-06-10T10:55:29.393Z,8.63
2019-06-10T10:57:59.437Z,11.03
2019-06-10T11:00:37.546Z,8.45
2019-06-10T11:03:07.832Z,13.03
2019-06-10T11:05:38.793Z,7.72
2019-06-10T11:08:14.332Z,15.75
2019-06-10T11:10:55.446Z,9.60
2019-06-10T11:13:25.113Z,7.93
2019-06-10T11:15:57.123Z,16.75
2019-06-10T11:18:28.777Z,7.75
2019-06-10T11:21:04.326Z,9.83
2019-06-10T11:23:34.720Z,7.70
2019-06-10T11:26:06.043Z,9.30
2019-06-10T11:28:37.387Z,13.62
2019-06-10T11:31:07.590Z,11.53
2019-06-10T11:33:40.182Z,9.50
2019-06-10T11:36:13.457Z,9.83
2019-06-10T11:38:46.266Z,14.55
2019-06-10T11:41:17.822Z,7.67
2019-06-10T11:43:48.390Z,9.40
2019-06-10T11:46:21.288Z,8.33
2019-06-10T11:48:57.308Z,9.53
2019-06-10T11:51:31.887Z,9.18
2019-06-10T11:54:03.622Z,10.68
2019-06-10T11:56:34.802Z,8.15
2019-06-10T11:59:09.583Z,8.43
2019-06-10T12:01:39.099Z,9.38
2019-06-10T12:04:12.923Z,13.53
2019-06-10T12:06:44.503Z,9.63
2019-06-10T12:09:15.859Z,8.17
2019-06-10T12:11:50.820Z,10.88
2019-06-10T12:14:26.786Z,9.03
2019-06-10T12:17:32.364Z,7.97
2019-06-10T12:19:38.555Z,7.90
2019-06-10T12:22:09.879Z,7.25
2019-06-10T12:24:43.285Z,7.53
2019-06-10T12:27:13.155Z,8.07
2019-06-10T12:29:47.936Z,8.98
2019-06-10T12:32:18.029Z,10.85
2019-06-10T12:34:51.340Z,9.98
2019-06-10T12:37:24.378Z,8.97
2019-06-10T12:39:59.979Z,6.85
2019-06-10T12:42:34.142Z,7.58
2019-06-10T12:45:07.645Z,9.88
2019-06-10T12:47:37.651Z,9.27
2019-06-10T12:50:11.922Z,7.83
2019-06-10T12:52:44.066Z,14.33
2019-06-10T12:55:35.551Z,7.97
2019-06-10T12:57:56.074Z,9.13
2019-06-10T13:00:27.932Z,7.87
2019-06-10T13:03:19.336Z,6.67
2019-06-10T13:05:49.502Z,7.22
2019-06-10T13:08:23.989Z,6.30
2019-06-10T13:10:55.763Z,11.45
2019-06-10T13:13:46.060Z,7.15
2019-06-10T13:16:19.859Z,7.25
2019-06-10T13:18:52.483Z,7.10
2019-06-10T13:21:27.346Z,7.17
2019-06-10T13:24:02.529Z,9.83
2019-06-10T13:26:36.184Z,7.72
2019-06-10T13:29:10.294Z,10.88
2019-06-10T13:31:43.548Z,11.88
2019-06-10T13:34:17.878Z,10.15
2019-06-10T13:36:49.653Z,9.90
2019-06-10T13:39:22.261Z,7.97
2019-06-10T13:41:53.470Z,7.53
2019-06-10T13:44:24.706Z,9.10
2019-06-10T13:46:57.123Z,8.10
2019-06-10T13:52:07.555Z,9.18
2019-06-10T13:54:36.001Z,20.32
2019-06-10T13:57:09.773Z,19.80
2019-06-10T13:59:59.697Z,8.70
2019-06-10T14:02:32.428Z,8.13
2019-06-10T14:07:46.324Z,7.20
2019-06-10T14:10:19.375Z,8.07
2019-06-10T14:12:52.677Z,7.83
2019-06-10T14:15:24.417Z,10.48
2019-06-10T14:17:57.971Z,6.65
2019-06-10T14:20:29.468Z,13.78
2019-06-10T14:23:02.581Z,13.40
2019-06-10T14:25:34.548Z,9.68
2019-06-10T14:28:07.704Z,9.95
2019-06-10T14:30:39.218Z,8.53
2019-06-10T14:33:14.302Z,8.68
2019-06-10T14:35:43.464Z,7.40
2019-06-10T14:38:15.850Z,9.23
2019-06-10T14:40:52.267Z,16.35
2019-06-10T14:43:24.639Z,14.28
2019-06-10T14:45:55.575Z,14.05
2019-06-10T14:48:29.691Z,10.93
2019-06-10T14:51:03.296Z,9.58
2019-06-10T14:53:35.493Z,14.68
2019-06-10T14:56:09.720Z,8.95
2019-06-10T14:58:43.692Z,9.85
2019-06-10T15:01:24.060Z,13.03
2019-06-10T15:03:52.158Z,15.13
2019-06-10T15:06:22.820Z,14.47
2019-06-10T15:08:55.479Z,13.80
2019-06-10T15:11:27.790Z,16.70
2019-06-10T15:14:03.066Z,9.68
2019-06-10T15:16:39.343Z,7.17
2019-06-10T15:19:19.999Z,8.23
2019-06-10T15:21:46.912Z,7.28
2019-06-10T15:24:23.683Z,7.92
2019-06-10T15:27:09.037Z,10.33
2019-06-10T15:29:32.802Z,11.85
2019-06-10T15:32:14.000Z,15.88
2019-06-10T15:34:38.097Z,12.55
2019-06-10T15:37:08.895Z,17.55
2019-06-10T15:39:42.286Z,13.38
2019-06-10T15:42:18.275Z,11.80
2019-06-10T15:45:02.544Z,9.40
2019-06-10T15:47:36.329Z,7.45
2019-06-10T15:50:12.497Z,15.25
2019-06-10T15:52:43.249Z,15.20
2019-06-10T15:55:37.839Z,14.50
2019-06-10T15:57:49.229Z,9.75
2019-06-10T16:00:24.512Z,11.45
2019-06-10T16:02:54.311Z,9.83
2019-06-10T16:05:28.389Z,9.08
2019-06-10T16:08:04.983Z,11.00
2019-06-10T16:10:40.088Z,12.53
2019-06-10T16:13:12.402Z,12.60
2019-06-10T16:15:45.621Z,11.88
2019-06-10T16:18:18.495Z,12.33
2019-06-10T16:20:52.760Z,11.30
2019-06-10T16:23:26.793Z,11.28
2019-06-10T16:25:58.175Z,16.65
2019-06-10T16:28:35.959Z,10.55
2019-06-10T16:31:08.741Z,10.65
2019-06-10T16:33:48.162Z,10.65
2019-06-10T16:36:17.123Z,10.85
2019-06-10T16:38:52.808Z,9.98
2019-06-10T16:41:26.470Z,11.57
2019-06-10T16:43:57.841Z,8.43
2019-06-10T16:46:29.114Z,10.78
2019-06-10T16:49:03.243Z,11.93
2019-06-10T16:51:35.584Z,22.82
2019-06-10T16:54:09.491Z,9.10
2019-06-10T16:56:43.543Z,14.03
2019-06-10T16:59:17.832Z,12.30
2019-06-10T17:01:53.154Z,12.18
2019-06-10T17:04:27.603Z,15.67
2019-06-10T17:07:02.130Z,12.58
2019-06-10T17:09:33.126Z,10.10
2019-06-10T17:12:04.406Z,9.23
2019-06-10T17:14:38.591Z,10.13
2019-06-10T17:17:08.652Z,11.57
2019-06-10T17:19:42.607Z,12.73
2019-06-10T17:22:14.080Z,19.13
2019-06-10T17:24:45.138Z,15.10
2019-06-10T17:27:17.328Z,43.27
2019-06-10T17:30:07.681Z,18.30
2019-06-10T17:32:39.008Z,16.97
2019-06-10T17:35:12.654Z,15.60
2019-06-10T17:37:44.109Z,13.80
2019-06-10T17:40:15.867Z,12.67
2019-06-10T17:42:48.597Z,15.55
2019-06-10T17:45:25.780Z,14.73
2019-06-10T17:47:54.827Z,12.35
2019-06-10T17:50:26.869Z,12.90
2019-06-10T17:52:59.099Z,13.83
2019-06-10T17:55:29.739Z,18.17
2019-06-10T17:58:02.756Z,14.98
2019-06-10T18:00:36.352Z,13.40
2019-06-10T18:03:09.353Z,15.13
2019-06-10T18:05:42.620Z,11.10
2019-06-10T18:08:13.211Z,10.07
2019-06-10T18:10:45.249Z,10.72
2019-06-10T18:13:16.825Z,9.67
2019-06-10T18:15:53.417Z,15.20
2019-06-10T18:18:24.201Z,10.10
2019-06-10T18:20:54.517Z,9.50
2019-06-10T18:23:30.843Z,15.60
2019-06-10T18:26:03.238Z,9.93
2019-06-10T18:28:53.948Z,9.55
2019-06-10T18:31:11.452Z,10.13
2019-06-10T18:33:44.062Z,9.93
2019-06-10T18:36:15.419Z,10.55
2019-06-10T18:38:46.079Z,12.05
2019-06-10T18:41:19.380Z,9.40
2019-06-10T18:43:52.083Z,11.40
2019-06-10T18:46:27.955Z,12.05
2019-06-10T18:48:59.279Z,11.00
2019-06-10T18:51:35.668Z,12.75
2019-06-10T18:54:05.298Z,14.23
2019-06-10T18:56:39.961Z,11.28
2019-06-10T18:59:19.855Z,20.23
2019-06-10T19:01:52.668Z,19.92
2019-06-10T19:04:34.995Z,19.65
2019-06-10T19:07:18.544Z,18.75
2019-06-10T19:09:54.234Z,18.07
2019-06-10T19:12:29.085Z,21.53
2019-06-10T19:15:02.640Z,27.53
2019-06-10T19:17:39.558Z,17.37
2019-06-10T19:20:15.365Z,17.90
2019-06-10T19:22:48.723Z,11.73
2019-06-10T19:25:19.878Z,11.23
2019-06-10T19:27:53.037Z,10.53
2019-06-10T19:30:24.136Z,16.67
2019-06-10T19:32:55.480Z,12.17
2019-06-10T19:35:27.971Z,12.78
2019-06-10T19:38:02.240Z,12.03
2019-06-10T19:40:33.800Z,13.03
2019-06-10T19:43:05.332Z,13.05
2019-06-10T19:45:36.060Z,12.70
2019-06-10T19:48:12.259Z,11.33
2019-06-10T19:50:48.113Z,10.27
2019-06-10T19:53:17.167Z,10.27
2019-06-10T19:55:53.127Z,10.43
2019-06-10T19:58:24.786Z,13.67
2019-06-10T20:00:56.014Z,13.97
2019-06-10T20:03:26.227Z,14.28
2019-06-10T20:05:57.420Z,14.33
2019-06-10T20:08:28.872Z,12.27
2019-06-10T20:11:00.126Z,11.97
2019-06-10T20:13:32.449Z,19.30
2019-06-10T20:16:12.380Z,28.53
2019-06-10T20:18:47.875Z,23.73
2019-06-10T20:21:18.915Z,45.03
2019-06-10T20:23:53.044Z,40.07
2019-06-10T20:26:28.235Z,18.57
2019-06-10T20:28:58.214Z,27.73
2019-06-10T20:31:28.503Z,22.70
2019-06-10T20:33:59.829Z,22.50
2019-06-10T20:36:33.451Z,18.23
2019-06-10T20:39:06.329Z,20.63
2019-06-10T20:41:47.285Z,18.53
2019-06-10T20:44:17.850Z,15.72
2019-06-10T20:46:49.353Z,22.80
2019-06-10T20:49:22.741Z,13.63
2019-06-10T20:52:09.793Z,15.80
2019-06-10T20:54:32.430Z,12.00
2019-06-10T20:57:04.334Z,13.13
2019-06-10T20:59:36.686Z,13.87
2019-06-10T21:02:07.824Z,13.20
2019-06-10T21:04:38.939Z,15.17
2019-06-10T21:07:12.609Z,19.23
2019-06-10T21:09:48.612Z,15.73
2019-06-10T21:12:22.302Z,14.78
2019-06-10T21:14:53.905Z,13.37
2019-06-10T21:17:46.334Z,13.43
2019-06-10T21:20:17.184Z,15.45
2019-06-10T21:22:49.015Z,15.57
2019-06-10T21:25:22.824Z,15.58
2019-06-10T21:27:54.212Z,13.43
2019-06-10T21:30:40.594Z,19.70
2019-06-10T21:32:59.835Z,13.20
2019-06-10T21:35:33.155Z,14.53
2019-06-10T21:38:04.609Z,13.63
2019-06-10T21:40:35.226Z,14.03
2019-06-10T21:43:06.418Z,13.20
2019-06-10T21:45:36.597Z,12.93
2019-06-10T21:48:06.923Z,13.43
2019-06-10T21:50:45.242Z,15.43
2019-06-10T21:53:14.765Z,20.13
2019-06-10T21:55:46.656Z,15.73
2019-06-10T21:58:17.711Z,14.25
2019-06-10T22:01:07.770Z,13.00
2019-06-10T22:03:23.547Z,13.32
2019-06-10T22:05:53.871Z,12.77
2019-06-10T22:08:25.343Z,13.03
2019-06-10T22:10:58.028Z,13.27
2019-06-10T22:13:32.735Z,19.23
2019-06-10T22:16:04.691Z,14.20
2019-06-10T22:18:37.909Z,18.73
2019-06-10T22:21:08.030Z,13.80
2019-06-10T22:23:38.040Z,14.53
2019-06-10T22:26:12.931Z,14.87
2019-06-10T22:28:45.414Z,14.77
2019-06-10T22:31:23.031Z,15.47
2019-06-10T22:33:52.073Z,14.57
2019-06-10T22:36:23.758Z,15.55
2019-06-10T22:38:57.763Z,18.07
2019-06-10T22:41:26.706Z,13.43
2019-06-10T22:46:29.048Z,14.87
2019-06-10T22:49:02.789Z,14.87
2019-06-10T22:51:32.943Z,25.30
2019-06-10T22:54:03.482Z,14.60
2019-06-10T22:56:34.028Z,14.57
2019-06-10T22:59:04.945Z,17.53
2019-06-10T23:01:38.394Z,21.93
2019-06-10T23:04:10.172Z,19.50
2019-06-10T23:06:42.842Z,16.97
2019-06-10T23:09:13.057Z,16.50
2019-06-10T23:11:44.165Z,15.33
2019-06-10T23:14:18.517Z,15.47
2019-06-10T23:16:50.641Z,15.40
2019-06-10T23:19:23.443Z,16.13
2019-06-10T23:21:54.163Z,14.87
2019-06-10T23:24:25.665Z,15.58
2019-06-10T23:26:57.958Z,13.87
2019-06-10T23:29:27.278Z,13.77
2019-06-10T23:32:05.873Z,14.33
2019-06-10T23:34:33.261Z,14.50
2019-06-10T23:37:04.665Z,13.97
2019-06-10T23:39:38.133Z,13.23
2019-06-10T23:42:08.235Z,13.63
2019-06-10T23:44:39.349Z,13.53
2019-06-10T23:47:12.762Z,12.70
2019-06-10T23:49:42.937Z,13.60
2019-06-10T23:52:14.278Z,14.30
2019-06-10T23:54:46.088Z,14.77
2019-06-10T23:57:17.273Z,13.47
2019-06-10T23:59:48.536Z,13.23
